sensor_id;sensor_type;location;lat;lon;timestamp;P1;durP1;ratioP1;P2;durP2;ratioP2
45049;SDS011;61798;48.048;-1.928;2022-12-10T00:01:18;31.48;;;16.17;;
45049;SDS011;61798;48.048;-1.928;2022-12-10T00:04:01;29.33;;;16.13;;
45049;SDS011;61798;48.048;-1.928;2022-12-10T00:06:56;30.20;;;18.10;;
45049;SDS011;61798;48.048;-1.928;2022-12-10T00:10:20;38.83;;;23.63;;
45049;SDS011;61798;48.048;-1.928;2022-12-10T00:13:35;37.95;;;22.90;;
45049;SDS011;61798;48.048;-1.928;2022-12-10T00:16:15;38.25;;;22.30;;
45049;SDS011;61798;48.048;-1.928;2022-12-10T00:19:04;32.97;;;20.83;;
45049;SDS011;61798;48.048;-1.928;2022-12-10T00:24:09;27.67;;;16.80;;
45049;SDS011;61798;48.048;-1.928;2022-12-10T00:27:11;26.60;;;15.52;;
45049;SDS011;61798;48.048;-1.928;2022-12-10T00:29:43;26.17;;;15.57;;
45049;SDS011;61798;48.048;-1.928;2022-12-10T00:32:20;23.83;;;15.10;;
45049;SDS011;61798;48.048;-1.928;2022-12-10T00:34:41;27.67;;;16.55;;
45049;SDS011;61798;48.048;-1.928;2022-12-10T00:37:24;31.60;;;18.05;;
45049;SDS011;61798;48.048;-1.928;2022-12-10T00:40:24;33.70;;;20.17;;
45049;SDS011;61798;48.048;-1.928;2022-12-10T00:42:50;34.67;;;19.98;;
45049;SDS011;61798;48.048;-1.928;2022-12-10T00:46:05;36.63;;;22.73;;
45049;SDS011;61798;48.048;-1.928;2022-12-10T00:48:32;45.17;;;26.23;;
45049;SDS011;61798;48.048;-1.928;2022-12-10T00:51:16;35.72;;;22.25;;
45049;SDS011;61798;48.048;-1.928;2022-12-10T00:57:34;34.28;;;21.17;;
45049;SDS011;61798;48.048;-1.928;2022-12-10T01:00:21;35.63;;;20.05;;
45049;SDS011;61798;48.048;-1.928;2022-12-10T01:02:57;27.80;;;17.75;;
45049;SDS011;61798;48.048;-1.928;2022-12-10T01:05:55;30.00;;;16.67;;
45049;SDS011;61798;48.048;-1.928;2022-12-10T01:09:06;28.73;;;15.65;;
45049;SDS011;61798;48.048;-1.928;2022-12-10T01:11:36;29.15;;;16.75;;
45049;SDS011;61798;48.048;-1.928;2022-12-10T01:14:36;32.83;;;17.77;;
45049;SDS011;61798;48.048;-1.928;2022-12-10T01:17:42;30.42;;;17.58;;
45049;SDS011;61798;48.048;-1.928;2022-12-10T01:21:24;29.48;;;17.00;;
45049;SDS011;61798;48.048;-1.928;2022-12-10T01:24:45;33.65;;;17.92;;
45049;SDS011;61798;48.048;-1.928;2022-12-10T01:28:56;32.45;;;17.15;;
45049;SDS011;61798;48.048;-1.928;2022-12-10T01:32:06;28.95;;;17.88;;
45049;SDS011;61798;48.048;-1.928;2022-12-10T01:35:51;28.75;;;17.17;;
45049;SDS011;61798;48.048;-1.928;2022-12-10T01:39:46;29.80;;;17.60;;
45049;SDS011;61798;48.048;-1.928;2022-12-10T01:43:59;31.55;;;17.60;;
45049;SDS011;61798;48.048;-1.928;2022-12-10T01:47:21;33.88;;;17.98;;
45049;SDS011;61798;48.048;-1.928;2022-12-10T01:53:31;32.65;;;18.08;;
45049;SDS011;61798;48.048;-1.928;2022-12-10T02:07:17;30.15;;;17.23;;
45049;SDS011;61798;48.048;-1.928;2022-12-10T02:14:06;32.45;;;17.73;;
45049;SDS011;61798;48.048;-1.928;2022-12-10T02:21:07;35.50;;;19.10;;
45049;SDS011;61798;48.048;-1.928;2022-12-10T02:32:09;33.80;;;19.85;;
45049;SDS011;61798;48.048;-1.928;2022-12-10T02:36:00;33.63;;;18.33;;
45049;SDS011;61798;48.048;-1.928;2022-12-10T02:38:41;30.85;;;18.02;;
45049;SDS011;61798;48.048;-1.928;2022-12-10T02:42:21;29.90;;;18.33;;
45049;SDS011;61798;48.048;-1.928;2022-12-10T02:53:20;29.35;;;18.35;;
45049;SDS011;61798;48.048;-1.928;2022-12-10T03:06:47;31.73;;;18.48;;
45049;SDS011;61798;48.048;-1.928;2022-12-10T03:14:22;31.70;;;17.38;;
45049;SDS011;61798;48.048;-1.928;2022-12-10T03:18:13;29.98;;;17.40;;
45049;SDS011;61798;48.048;-1.928;2022-12-10T03:21:30;23.92;;;16.13;;
45049;SDS011;61798;48.048;-1.928;2022-12-10T03:25:06;24.15;;;15.82;;
45049;SDS011;61798;48.048;-1.928;2022-12-10T03:32:38;28.58;;;16.15;;
45049;SDS011;61798;48.048;-1.928;2022-12-10T03:35:50;26.00;;;15.52;;
45049;SDS011;61798;48.048;-1.928;2022-12-10T03:38:53;24.80;;;15.40;;
45049;SDS011;61798;48.048;-1.928;2022-12-10T03:41:39;25.63;;;14.60;;
45049;SDS011;61798;48.048;-1.928;2022-12-10T03:45:33;24.63;;;14.55;;
45049;SDS011;61798;48.048;-1.928;2022-12-10T03:52:45;26.85;;;16.65;;
45049;SDS011;61798;48.048;-1.928;2022-12-10T03:54:53;29.00;;;15.73;;
45049;SDS011;61798;48.048;-1.928;2022-12-10T03:57:00;27.90;;;15.85;;
45049;SDS011;61798;48.048;-1.928;2022-12-10T03:59:09;23.98;;;15.63;;
45049;SDS011;61798;48.048;-1.928;2022-12-10T04:01:16;25.55;;;16.13;;
45049;SDS011;61798;48.048;-1.928;2022-12-10T04:03:24;26.70;;;15.82;;
45049;SDS011;61798;48.048;-1.928;2022-12-10T04:05:31;30.10;;;16.20;;
45049;SDS011;61798;48.048;-1.928;2022-12-10T04:07:38;27.90;;;17.23;;
45049;SDS011;61798;48.048;-1.928;2022-12-10T04:09:46;29.58;;;16.30;;
45049;SDS011;61798;48.048;-1.928;2022-12-10T04:11:57;27.38;;;16.35;;
45049;SDS011;61798;48.048;-1.928;2022-12-10T04:14:05;27.83;;;16.23;;
45049;SDS011;61798;48.048;-1.928;2022-12-10T04:16:32;25.95;;;16.02;;
45049;SDS011;61798;48.048;-1.928;2022-12-10T04:18:40;26.15;;;16.05;;
45049;SDS011;61798;48.048;-1.928;2022-12-10T04:20:46;28.55;;;16.13;;
45049;SDS011;61798;48.048;-1.928;2022-12-10T04:23:12;26.88;;;15.48;;
45049;SDS011;61798;48.048;-1.928;2022-12-10T04:25:38;24.13;;;15.35;;
45049;SDS011;61798;48.048;-1.928;2022-12-10T04:28:04;27.00;;;16.45;;
45049;SDS011;61798;48.048;-1.928;2022-12-10T04:30:11;23.50;;;14.98;;
45049;SDS011;61798;48.048;-1.928;2022-12-10T04:32:19;23.05;;;15.07;;
45049;SDS011;61798;48.048;-1.928;2022-12-10T04:34:28;25.27;;;15.05;;
45049;SDS011;61798;48.048;-1.928;2022-12-10T04:36:35;27.60;;;15.18;;
45049;SDS011;61798;48.048;-1.928;2022-12-10T04:38:43;24.60;;;14.40;;
45049;SDS011;61798;48.048;-1.928;2022-12-10T04:40:50;25.15;;;14.13;;
45049;SDS011;61798;48.048;-1.928;2022-12-10T04:42:56;22.33;;;13.50;;
45049;SDS011;61798;48.048;-1.928;2022-12-10T04:45:02;24.20;;;13.88;;
45049;SDS011;61798;48.048;-1.928;2022-12-10T04:47:09;23.90;;;14.27;;
45049;SDS011;61798;48.048;-1.928;2022-12-10T04:49:17;26.73;;;14.93;;
45049;SDS011;61798;48.048;-1.928;2022-12-10T04:51:27;24.38;;;14.60;;
45049;SDS011;61798;48.048;-1.928;2022-12-10T04:53:34;25.23;;;14.45;;
45049;SDS011;61798;48.048;-1.928;2022-12-10T04:55:42;23.67;;;13.77;;
45049;SDS011;61798;48.048;-1.928;2022-12-10T04:57:49;20.88;;;14.68;;
45049;SDS011;61798;48.048;-1.928;2022-12-10T04:59:57;26.75;;;17.48;;
45049;SDS011;61798;48.048;-1.928;2022-12-10T05:02:05;30.45;;;17.85;;
45049;SDS011;61798;48.048;-1.928;2022-12-10T05:04:15;25.73;;;16.90;;
45049;SDS011;61798;48.048;-1.928;2022-12-10T05:06:24;26.20;;;16.50;;
45049;SDS011;61798;48.048;-1.928;2022-12-10T05:08:31;30.50;;;19.63;;
45049;SDS011;61798;48.048;-1.928;2022-12-10T05:10:39;26.73;;;18.00;;
45049;SDS011;61798;48.048;-1.928;2022-12-10T05:12:46;24.90;;;16.58;;
45049;SDS011;61798;48.048;-1.928;2022-12-10T05:14:53;27.02;;;15.50;;
45049;SDS011;61798;48.048;-1.928;2022-12-10T05:17:00;26.42;;;16.13;;
45049;SDS011;61798;48.048;-1.928;2022-12-10T05:19:10;21.25;;;15.80;;
45049;SDS011;61798;48.048;-1.928;2022-12-10T05:21:17;26.63;;;17.02;;
45049;SDS011;61798;48.048;-1.928;2022-12-10T05:23:24;24.60;;;17.58;;
45049;SDS011;61798;48.048;-1.928;2022-12-10T05:25:36;27.40;;;17.13;;
45049;SDS011;61798;48.048;-1.928;2022-12-10T05:27:59;24.55;;;16.85;;
45049;SDS011;61798;48.048;-1.928;2022-12-10T05:30:08;22.85;;;16.33;;
45049;SDS011;61798;48.048;-1.928;2022-12-10T05:32:15;29.35;;;17.50;;
45049;SDS011;61798;48.048;-1.928;2022-12-10T05:34:25;25.08;;;16.63;;
45049;SDS011;61798;48.048;-1.928;2022-12-10T05:36:32;26.30;;;17.45;;
45049;SDS011;61798;48.048;-1.928;2022-12-10T05:38:41;24.90;;;17.88;;
45049;SDS011;61798;48.048;-1.928;2022-12-10T05:40:49;26.05;;;17.25;;
45049;SDS011;61798;48.048;-1.928;2022-12-10T05:42:57;26.60;;;17.95;;
45049;SDS011;61798;48.048;-1.928;2022-12-10T05:45:05;27.17;;;17.10;;
45049;SDS011;61798;48.048;-1.928;2022-12-10T05:47:13;25.13;;;16.52;;
45049;SDS011;61798;48.048;-1.928;2022-12-10T05:49:20;22.52;;;16.52;;
45049;SDS011;61798;48.048;-1.928;2022-12-10T05:51:28;24.02;;;15.23;;
45049;SDS011;61798;48.048;-1.928;2022-12-10T05:53:37;24.27;;;15.60;;
45049;SDS011;61798;48.048;-1.928;2022-12-10T05:55:44;23.92;;;15.32;;
45049;SDS011;61798;48.048;-1.928;2022-12-10T05:57:52;22.08;;;14.90;;
45049;SDS011;61798;48.048;-1.928;2022-12-10T06:00:00;23.95;;;15.00;;
45049;SDS011;61798;48.048;-1.928;2022-12-10T06:02:07;23.58;;;15.35;;
45049;SDS011;61798;48.048;-1.928;2022-12-10T06:04:14;21.38;;;13.55;;
45049;SDS011;61798;48.048;-1.928;2022-12-10T06:06:28;22.30;;;13.50;;
45049;SDS011;61798;48.048;-1.928;2022-12-10T06:08:38;19.45;;;13.15;;
45049;SDS011;61798;48.048;-1.928;2022-12-10T06:10:46;23.83;;;14.10;;
45049;SDS011;61798;48.048;-1.928;2022-12-10T06:12:53;27.23;;;14.80;;
45049;SDS011;61798;48.048;-1.928;2022-12-10T06:15:01;23.52;;;14.00;;
45049;SDS011;61798;48.048;-1.928;2022-12-10T06:17:10;22.05;;;13.95;;
45049;SDS011;61798;48.048;-1.928;2022-12-10T06:19:18;20.52;;;14.20;;
45049;SDS011;61798;48.048;-1.928;2022-12-10T06:21:26;19.85;;;13.10;;
45049;SDS011;61798;48.048;-1.928;2022-12-10T06:23:34;24.73;;;15.55;;
45049;SDS011;61798;48.048;-1.928;2022-12-10T06:25:41;25.40;;;14.88;;
45049;SDS011;61798;48.048;-1.928;2022-12-10T06:27:48;21.50;;;14.07;;
45049;SDS011;61798;48.048;-1.928;2022-12-10T06:29:59;22.23;;;14.05;;
45049;SDS011;61798;48.048;-1.928;2022-12-10T06:32:06;21.50;;;13.27;;
45049;SDS011;61798;48.048;-1.928;2022-12-10T06:34:14;21.73;;;14.70;;
45049;SDS011;61798;48.048;-1.928;2022-12-10T06:36:22;21.08;;;14.32;;
45049;SDS011;61798;48.048;-1.928;2022-12-10T06:38:33;20.60;;;14.30;;
45049;SDS011;61798;48.048;-1.928;2022-12-10T06:40:41;22.27;;;14.57;;
45049;SDS011;61798;48.048;-1.928;2022-12-10T06:42:51;22.08;;;14.70;;
45049;SDS011;61798;48.048;-1.928;2022-12-10T06:44:59;24.35;;;14.05;;
45049;SDS011;61798;48.048;-1.928;2022-12-10T06:47:06;22.52;;;14.73;;
45049;SDS011;61798;48.048;-1.928;2022-12-10T06:49:15;24.42;;;14.38;;
45049;SDS011;61798;48.048;-1.928;2022-12-10T06:51:22;19.90;;;13.07;;
45049;SDS011;61798;48.048;-1.928;2022-12-10T06:53:28;22.02;;;14.50;;
45049;SDS011;61798;48.048;-1.928;2022-12-10T06:55:37;24.50;;;13.80;;
45049;SDS011;61798;48.048;-1.928;2022-12-10T06:57:45;21.33;;;13.85;;
45049;SDS011;61798;48.048;-1.928;2022-12-10T06:59:51;21.02;;;14.02;;
45049;SDS011;61798;48.048;-1.928;2022-12-10T07:01:57;20.02;;;13.10;;
45049;SDS011;61798;48.048;-1.928;2022-12-10T07:04:04;18.83;;;13.20;;
45049;SDS011;61798;48.048;-1.928;2022-12-10T07:06:11;19.80;;;13.23;;
45049;SDS011;61798;48.048;-1.928;2022-12-10T07:08:18;23.92;;;13.98;;
45049;SDS011;61798;48.048;-1.928;2022-12-10T07:10:24;20.52;;;12.77;;
45049;SDS011;61798;48.048;-1.928;2022-12-10T07:12:32;18.38;;;12.52;;
45049;SDS011;61798;48.048;-1.928;2022-12-10T07:14:39;21.42;;;13.50;;
45049;SDS011;61798;48.048;-1.928;2022-12-10T07:16:47;22.35;;;13.40;;
45049;SDS011;61798;48.048;-1.928;2022-12-10T07:18:55;20.35;;;13.43;;
45049;SDS011;61798;48.048;-1.928;2022-12-10T07:21:26;19.77;;;12.40;;
45049;SDS011;61798;48.048;-1.928;2022-12-10T07:23:34;19.05;;;13.38;;
45049;SDS011;61798;48.048;-1.928;2022-12-10T07:25:41;22.27;;;14.35;;
45049;SDS011;61798;48.048;-1.928;2022-12-10T07:27:49;22.17;;;13.25;;
45049;SDS011;61798;48.048;-1.928;2022-12-10T07:29:56;21.48;;;14.60;;
45049;SDS011;61798;48.048;-1.928;2022-12-10T07:32:03;22.83;;;14.38;;
45049;SDS011;61798;48.048;-1.928;2022-12-10T07:34:11;24.00;;;13.63;;
45049;SDS011;61798;48.048;-1.928;2022-12-10T07:36:18;21.65;;;13.45;;
45049;SDS011;61798;48.048;-1.928;2022-12-10T07:38:25;21.10;;;13.13;;
45049;SDS011;61798;48.048;-1.928;2022-12-10T07:40:31;20.52;;;12.73;;
45049;SDS011;61798;48.048;-1.928;2022-12-10T07:42:39;21.80;;;13.85;;
45049;SDS011;61798;48.048;-1.928;2022-12-10T07:44:47;19.73;;;14.05;;
45049;SDS011;61798;48.048;-1.928;2022-12-10T07:46:54;20.88;;;13.25;;
45049;SDS011;61798;48.048;-1.928;2022-12-10T07:49:02;20.38;;;13.07;;
45049;SDS011;61798;48.048;-1.928;2022-12-10T07:51:10;26.33;;;14.95;;
45049;SDS011;61798;48.048;-1.928;2022-12-10T07:53:17;27.73;;;17.13;;
45049;SDS011;61798;48.048;-1.928;2022-12-10T07:55:25;21.15;;;14.57;;
45049;SDS011;61798;48.048;-1.928;2022-12-10T07:57:32;24.10;;;15.35;;
45049;SDS011;61798;48.048;-1.928;2022-12-10T07:59:40;21.42;;;13.90;;
45049;SDS011;61798;48.048;-1.928;2022-12-10T08:01:46;28.75;;;14.45;;
45049;SDS011;61798;48.048;-1.928;2022-12-10T08:03:56;23.42;;;13.88;;
45049;SDS011;61798;48.048;-1.928;2022-12-10T08:06:10;47.08;;;27.65;;
45049;SDS011;61798;48.048;-1.928;2022-12-10T08:08:19;45.17;;;25.17;;
45049;SDS011;61798;48.048;-1.928;2022-12-10T08:10:25;31.95;;;21.98;;
45049;SDS011;61798;48.048;-1.928;2022-12-10T08:12:32;40.08;;;21.52;;
45049;SDS011;61798;48.048;-1.928;2022-12-10T08:14:39;33.47;;;18.98;;
45049;SDS011;61798;48.048;-1.928;2022-12-10T08:16:47;83.70;;;38.13;;
45049;SDS011;61798;48.048;-1.928;2022-12-10T08:18:55;61.70;;;31.38;;
45049;SDS011;61798;48.048;-1.928;2022-12-10T08:21:07;58.42;;;30.33;;
45049;SDS011;61798;48.048;-1.928;2022-12-10T08:23:17;57.40;;;30.05;;
45049;SDS011;61798;48.048;-1.928;2022-12-10T08:25:25;56.95;;;27.65;;
45049;SDS011;61798;48.048;-1.928;2022-12-10T08:27:33;59.30;;;27.52;;
45049;SDS011;61798;48.048;-1.928;2022-12-10T08:29:42;47.03;;;25.75;;
45049;SDS011;61798;48.048;-1.928;2022-12-10T08:31:50;47.58;;;24.63;;
45049;SDS011;61798;48.048;-1.928;2022-12-10T08:33:57;35.10;;;20.35;;
45049;SDS011;61798;48.048;-1.928;2022-12-10T08:36:05;34.90;;;19.67;;
45049;SDS011;61798;48.048;-1.928;2022-12-10T08:38:16;35.80;;;20.08;;
45049;SDS011;61798;48.048;-1.928;2022-12-10T08:40:23;31.23;;;19.15;;
45049;SDS011;61798;48.048;-1.928;2022-12-10T08:42:31;36.90;;;20.70;;
45049;SDS011;61798;48.048;-1.928;2022-12-10T08:44:38;35.08;;;19.70;;
45049;SDS011;61798;48.048;-1.928;2022-12-10T08:46:45;35.55;;;20.05;;
45049;SDS011;61798;48.048;-1.928;2022-12-10T08:48:52;32.42;;;20.10;;
45049;SDS011;61798;48.048;-1.928;2022-12-10T08:50:58;31.25;;;18.63;;
45049;SDS011;61798;48.048;-1.928;2022-12-10T08:53:05;32.10;;;18.23;;
45049;SDS011;61798;48.048;-1.928;2022-12-10T08:55:14;28.73;;;17.98;;
45049;SDS011;61798;48.048;-1.928;2022-12-10T08:57:22;30.80;;;16.88;;
45049;SDS011;61798;48.048;-1.928;2022-12-10T08:59:30;26.23;;;16.05;;
45049;SDS011;61798;48.048;-1.928;2022-12-10T09:01:36;25.77;;;16.33;;
45049;SDS011;61798;48.048;-1.928;2022-12-10T09:03:42;27.30;;;16.17;;
45049;SDS011;61798;48.048;-1.928;2022-12-10T09:05:51;25.90;;;15.05;;
45049;SDS011;61798;48.048;-1.928;2022-12-10T09:07:58;24.05;;;15.13;;
45049;SDS011;61798;48.048;-1.928;2022-12-10T09:10:06;23.40;;;15.20;;
45049;SDS011;61798;48.048;-1.928;2022-12-10T09:12:13;28.15;;;16.02;;
45049;SDS011;61798;48.048;-1.928;2022-12-10T09:14:20;29.08;;;18.17;;
45049;SDS011;61798;48.048;-1.928;2022-12-10T09:16:31;36.13;;;22.13;;
45049;SDS011;61798;48.048;-1.928;2022-12-10T09:18:40;38.53;;;26.00;;
45049;SDS011;61798;48.048;-1.928;2022-12-10T09:20:46;38.25;;;25.30;;
45049;SDS011;61798;48.048;-1.928;2022-12-10T09:22:52;38.47;;;25.13;;
45049;SDS011;61798;48.048;-1.928;2022-12-10T09:24:59;39.83;;;25.70;;
45049;SDS011;61798;48.048;-1.928;2022-12-10T09:27:07;37.08;;;23.48;;
45049;SDS011;61798;48.048;-1.928;2022-12-10T09:29:14;33.80;;;21.33;;
45049;SDS011;61798;48.048;-1.928;2022-12-10T09:31:20;28.48;;;18.60;;
45049;SDS011;61798;48.048;-1.928;2022-12-10T09:33:28;21.88;;;13.25;;
45049;SDS011;61798;48.048;-1.928;2022-12-10T09:35:39;24.60;;;16.08;;
45049;SDS011;61798;48.048;-1.928;2022-12-10T09:37:47;36.90;;;15.68;;
45049;SDS011;61798;48.048;-1.928;2022-12-10T09:39:55;75.20;;;15.45;;
45049;SDS011;61798;48.048;-1.928;2022-12-10T09:45:03;44.97;;;13.73;;
45049;SDS011;61798;48.048;-1.928;2022-12-10T09:47:20;44.40;;;13.43;;
45049;SDS011;61798;48.048;-1.928;2022-12-10T09:49:47;30.15;;;12.10;;
45049;SDS011;61798;48.048;-1.928;2022-12-10T09:52:18;33.45;;;13.35;;
45049;SDS011;61798;48.048;-1.928;2022-12-10T09:54:34;23.33;;;12.90;;
45049;SDS011;61798;48.048;-1.928;2022-12-10T09:56:53;25.48;;;11.85;;
45049;SDS011;61798;48.048;-1.928;2022-12-10T09:59:15;18.40;;;11.77;;
45049;SDS011;61798;48.048;-1.928;2022-12-10T10:01:27;22.70;;;11.70;;
45049;SDS011;61798;48.048;-1.928;2022-12-10T10:03:40;20.50;;;11.23;;
45049;SDS011;61798;48.048;-1.928;2022-12-10T10:05:54;17.98;;;11.95;;
45049;SDS011;61798;48.048;-1.928;2022-12-10T10:08:12;19.65;;;12.68;;
45049;SDS011;61798;48.048;-1.928;2022-12-10T10:10:30;22.83;;;11.57;;
45049;SDS011;61798;48.048;-1.928;2022-12-10T10:12:41;18.80;;;11.80;;
45049;SDS011;61798;48.048;-1.928;2022-12-10T10:14:56;31.10;;;13.05;;
45049;SDS011;61798;48.048;-1.928;2022-12-10T10:17:04;104.57;;;16.75;;
45049;SDS011;61798;48.048;-1.928;2022-12-10T10:19:30;248.25;;;25.42;;
45049;SDS011;61798;48.048;-1.928;2022-12-10T10:21:46;312.42;;;29.05;;
45049;SDS011;61798;48.048;-1.928;2022-12-10T10:23:58;262.37;;;25.43;;
45049;SDS011;61798;48.048;-1.928;2022-12-10T10:26:09;180.05;;;22.10;;
45049;SDS011;61798;48.048;-1.928;2022-12-10T10:28:22;226.55;;;25.92;;
45049;SDS011;61798;48.048;-1.928;2022-12-10T10:30:37;112.10;;;21.58;;
45049;SDS011;61798;48.048;-1.928;2022-12-10T10:33:13;111.00;;;23.58;;
45049;SDS011;61798;48.048;-1.928;2022-12-10T10:35:57;79.97;;;25.23;;
45049;SDS011;61798;48.048;-1.928;2022-12-10T10:38:13;141.88;;;28.33;;
45049;SDS011;61798;48.048;-1.928;2022-12-10T10:40:51;71.35;;;23.83;;
45049;SDS011;61798;48.048;-1.928;2022-12-10T10:43:26;40.60;;;21.83;;
45049;SDS011;61798;48.048;-1.928;2022-12-10T10:46:22;39.85;;;20.25;;
45049;SDS011;61798;48.048;-1.928;2022-12-10T10:48:31;26.73;;;15.90;;
45049;SDS011;61798;48.048;-1.928;2022-12-10T10:50:47;27.33;;;14.27;;
45049;SDS011;61798;48.048;-1.928;2022-12-10T10:58:55;17.17;;;12.07;;
45049;SDS011;61798;48.048;-1.928;2022-12-10T11:01:06;19.90;;;10.80;;
45049;SDS011;61798;48.048;-1.928;2022-12-10T11:03:14;19.25;;;8.82;;
45049;SDS011;61798;48.048;-1.928;2022-12-10T11:05:23;12.52;;;8.10;;
45049;SDS011;61798;48.048;-1.928;2022-12-10T11:07:48;14.02;;;8.05;;
45049;SDS011;61798;48.048;-1.928;2022-12-10T11:10:12;10.10;;;7.00;;
45049;SDS011;61798;48.048;-1.928;2022-12-10T11:12:37;21.45;;;8.50;;
45049;SDS011;61798;48.048;-1.928;2022-12-10T11:14:54;15.88;;;8.52;;
45049;SDS011;61798;48.048;-1.928;2022-12-10T11:17:18;14.13;;;8.68;;
45049;SDS011;61798;48.048;-1.928;2022-12-10T11:19:41;15.20;;;8.70;;
45049;SDS011;61798;48.048;-1.928;2022-12-10T11:22:51;23.27;;;8.70;;
45049;SDS011;61798;48.048;-1.928;2022-12-10T11:57:12;65.75;;;6.78;;
45049;SDS011;61798;48.048;-1.928;2022-12-10T12:21:52;12.25;;;5.07;;
45049;SDS011;61798;48.048;-1.928;2022-12-10T12:24:09;9.75;;;4.60;;
45049;SDS011;61798;48.048;-1.928;2022-12-10T12:26:32;6.88;;;4.97;;
45049;SDS011;61798;48.048;-1.928;2022-12-10T12:28:45;7.28;;;5.47;;
45049;SDS011;61798;48.048;-1.928;2022-12-10T12:31:26;9.93;;;5.82;;
45049;SDS011;61798;48.048;-1.928;2022-12-10T12:46:47;12.30;;;6.90;;
45049;SDS011;61798;48.048;-1.928;2022-12-10T18:54:00;51.47;;;29.20;;
45049;SDS011;61798;48.048;-1.928;2022-12-10T20:05:56;38.50;;;23.70;;
45049;SDS011;61798;48.048;-1.928;2022-12-10T20:13:42;52.65;;;30.88;;
45049;SDS011;61798;48.048;-1.928;2022-12-10T20:17:11;45.70;;;26.90;;
45049;SDS011;61798;48.048;-1.928;2022-12-10T20:47:44;36.70;;;21.00;;
45049;SDS011;61798;48.048;-1.928;2022-12-10T20:50:46;39.17;;;21.33;;
45049;SDS011;61798;48.048;-1.928;2022-12-10T20:58:24;33.17;;;20.30;;
45049;SDS011;61798;48.048;-1.928;2022-12-10T21:02:54;36.00;;;20.00;;
45049;SDS011;61798;48.048;-1.928;2022-12-10T21:07:08;32.72;;;19.15;;
45049;SDS011;61798;48.048;-1.928;2022-12-10T21:51:26;38.97;;;21.83;;
45049;SDS011;61798;48.048;-1.928;2022-12-10T21:57:55;38.55;;;23.92;;
45049;SDS011;61798;48.048;-1.928;2022-12-10T22:00:57;37.00;;;23.00;;
45049;SDS011;61798;48.048;-1.928;2022-12-10T22:04:28;48.67;;;29.17;;
45049;SDS011;61798;48.048;-1.928;2022-12-10T22:07:26;40.35;;;24.83;;
45049;SDS011;61798;48.048;-1.928;2022-12-10T22:10:51;47.13;;;26.88;;
45049;SDS011;61798;48.048;-1.928;2022-12-10T22:17:50;41.53;;;23.15;;
45049;SDS011;61798;48.048;-1.928;2022-12-10T22:21:15;38.53;;;23.98;;
45049;SDS011;61798;48.048;-1.928;2022-12-10T22:24:29;39.80;;;23.88;;
45049;SDS011;61798;48.048;-1.928;2022-12-10T22:28:14;36.08;;;23.98;;
45049;SDS011;61798;48.048;-1.928;2022-12-10T22:32:01;35.58;;;22.75;;
45049;SDS011;61798;48.048;-1.928;2022-12-10T23:03:40;44.75;;;25.83;;
45049;SDS011;61798;48.048;-1.928;2022-12-10T23:07:33;41.47;;;24.83;;
45049;SDS011;61798;48.048;-1.928;2022-12-10T23:11:28;39.97;;;24.50;;
